Airfield :
LOGIN :

Register | Disclaimer

   EN    FR    IT 

 










Legend :    VFR   Marginal VFR   IFR   Intensive IFR   Very Intensive IFR
Visi :
Ceiling :
>= 8 km
>= 3000ft
5 to 8 km
1000 to 3000 ft
1500m to 5 km
500 to 1000 ft
800 to 1500m
200 to 500 ft
< 800m
< 200 ft
Symbols :   Thunderstorms  Fog  Heavy snow  Heavy precipitations  Wind > 20 kt
SIGMETs :     Misc.  Thunderstorms  Icing  Turbulence  Mountain Waves  Volcanic Ashes






- Airport Elevation : 1302 ft
- IATA code : GNB


LFLS - Grenoble / St. Geoirs

CURRENT METAR :
  • 212300Z AUTO VRB01KT 9999 FEW058 OVC070 10/08 Q1018

EXPIRED METARs :
  • 212230Z AUTO VRB02KT 9999 BKN068 OVC078 10/08 Q1018
  • 212200Z AUTO VRB02KT 9999 BKN068 OVC078 10/08 Q1018
  • 212130Z AUTO VRB02KT 9999 OVC072 10/08 Q1018
  • 212100Z AUTO 07003KT 040V100 9999 OVC074 09/07 Q1018
  • 212030Z AUTO 07007KT 9999 OVC072 09/07 Q1018

TAF TAF LFLS
Valid from the 21 at 15:00 until the 22 at 15:00 UTC


211400Z 2115/2215 VRB02KT CAVOK
BECMG 2205/2207 36008KT
TEMPO 2205/2211 BKN014
ATIS : +33 4 76 65 55 89



MET'MAP, your aeronautical weather chart ! - Copyright ORBIFLY December 2007 - Disclaimer

ORBIFLY MET'MAP TEAM :

Programming & Development : Alexandra Zaïnal
Concept & original design : Baudouin d'Aumeries
Assistance for programming : Marc-Olivier Méhu
Technical & hardware support : Manuel Goepfert

Contact : metmap@orbifly.com




SOURCES & CREDITS :

   NOAA